createdAt,value
2023-03-26T00:00:14.959Z,48.76
2023-03-26T00:02:41.316Z,47.81
2023-03-26T00:05:07.635Z,47.38
2023-03-26T00:07:33.900Z,46.83
2023-03-26T00:10:00.129Z,47.25
2023-03-26T00:12:26.354Z,48.17
2023-03-26T00:14:52.615Z,49.23
2023-03-26T00:17:18.849Z,48.74
2023-03-26T00:19:45.143Z,49.23
2023-03-26T00:22:11.398Z,49.97
2023-03-26T00:24:37.636Z,50.79
2023-03-26T00:27:03.891Z,49.96
2023-03-26T00:29:30.128Z,49.96
2023-03-26T00:31:56.380Z,50.77
2023-03-26T00:34:22.609Z,52.46
2023-03-26T00:36:48.934Z,52.85
2023-03-26T00:39:15.166Z,52.53
2023-03-26T00:41:41.424Z,52.26
2023-03-26T00:44:07.678Z,52.02
2023-03-26T00:46:33.958Z,51.19
2023-03-26T00:49:00.248Z,51.96
2023-03-26T00:51:26.549Z,52.17
2023-03-26T00:53:52.764Z,52.09
2023-03-26T00:56:18.996Z,52.37
2023-03-26T00:58:45.321Z,51.63
2023-03-26T01:01:11.571Z,52.06
2023-03-26T01:03:37.916Z,52.71
2023-03-26T01:06:04.220Z,53.06
2023-03-26T01:08:30.480Z,53.44
2023-03-26T01:10:56.707Z,53.49
2023-03-26T01:13:22.956Z,53.40
2023-03-26T01:15:49.192Z,53.70
2023-03-26T01:18:15.487Z,53.37
2023-03-26T01:20:41.779Z,54.30
2023-03-26T01:23:08.065Z,53.80
2023-03-26T01:25:34.301Z,53.42
2023-03-26T01:28:00.588Z,52.88
2023-03-26T01:30:26.882Z,53.20
2023-03-26T01:32:53.250Z,53.67
2023-03-26T01:35:19.669Z,53.55
2023-03-26T01:37:45.914Z,53.16
2023-03-26T01:40:12.146Z,52.11
2023-03-26T01:42:38.382Z,52.43
2023-03-26T01:45:04.624Z,52.06
2023-03-26T01:47:30.879Z,52.64
2023-03-26T01:49:57.120Z,53.77
2023-03-26T01:52:23.436Z,53.56
2023-03-26T01:54:49.693Z,53.11
2023-03-26T01:57:15.924Z,52.16
2023-03-26T01:59:42.152Z,52.37
2023-03-26T02:02:08.544Z,51.73
2023-03-26T02:04:34.885Z,51.16
2023-03-26T02:07:01.127Z,50.75
2023-03-26T02:09:27.381Z,49.81
2023-03-26T02:11:53.598Z,49.89
2023-03-26T02:14:19.839Z,50.51
2023-03-26T02:16:46.332Z,50.82
2023-03-26T02:19:12.679Z,50.26
2023-03-26T02:21:38.901Z,50.59
2023-03-26T02:24:05.150Z,50.57
2023-03-26T02:26:31.423Z,50.92
2023-03-26T02:28:57.666Z,50.76
2023-03-26T02:31:23.954Z,51.54
2023-03-26T02:33:50.240Z,52.15
2023-03-26T02:36:16.491Z,52.18
2023-03-26T02:38:42.785Z,51.26
2023-03-26T02:41:09.015Z,51.90
2023-03-26T02:43:35.268Z,51.57
2023-03-26T02:46:01.554Z,51.31
2023-03-26T02:48:27.800Z,50.33
2023-03-26T02:50:54.049Z,50.92
2023-03-26T02:53:20.295Z,50.23
2023-03-26T02:55:46.517Z,49.71
2023-03-26T02:58:12.749Z,49.22
2023-03-26T03:00:38.976Z,48.93
2023-03-26T03:03:05.287Z,48.77
2023-03-26T03:05:31.575Z,49.77
2023-03-26T03:07:57.800Z,49.68
2023-03-26T03:10:24.028Z,50.02
2023-03-26T03:12:50.279Z,49.16
2023-03-26T03:15:16.548Z,49.65
2023-03-26T03:17:42.828Z,49.71
2023-03-26T03:20:09.224Z,49.14
2023-03-26T03:22:35.471Z,48.46
2023-03-26T03:25:01.730Z,49.25
2023-03-26T03:27:28.059Z,50.00
2023-03-26T03:29:54.305Z,50.41
2023-03-26T03:32:20.534Z,49.89
2023-03-26T03:34:46.793Z,49.71
2023-03-26T03:37:13.035Z,48.83
2023-03-26T03:39:39.273Z,47.98
2023-03-26T03:42:05.493Z,48.10
2023-03-26T03:44:31.756Z,48.89
2023-03-26T03:46:57.998Z,51.37
2023-03-26T03:49:24.221Z,50.48
2023-03-26T03:51:50.674Z,50.23
2023-03-26T03:54:16.935Z,49.38
2023-03-26T03:56:43.209Z,49.33
2023-03-26T03:59:09.497Z,49.07
2023-03-26T04:01:35.713Z,48.72
2023-03-26T04:04:02.062Z,51.49
2023-03-26T04:06:28.410Z,52.99
2023-03-26T04:08:54.642Z,53.57
2023-03-26T04:11:20.887Z,54.25
2023-03-26T04:13:47.129Z,53.74
2023-03-26T04:16:13.446Z,53.56
2023-03-26T04:18:39.749Z,53.74
2023-03-26T04:21:05.988Z,53.36
2023-03-26T04:23:32.248Z,54.08
2023-03-26T04:25:59.513Z,54.08
2023-03-26T04:28:25.756Z,53.05
2023-03-26T04:30:52.025Z,52.74
2023-03-26T04:33:18.260Z,52.68
2023-03-26T04:35:44.547Z,52.93
2023-03-26T04:38:10.834Z,52.46
2023-03-26T04:40:37.116Z,53.82
2023-03-26T04:43:03.412Z,53.15
2023-03-26T04:45:29.657Z,53.18
2023-03-26T04:47:56.005Z,52.63
2023-03-26T04:50:22.280Z,51.74
2023-03-26T04:52:48.506Z,51.37
2023-03-26T04:55:14.732Z,50.42
2023-03-26T04:57:40.971Z,50.27
2023-03-26T05:00:07.239Z,50.00
2023-03-26T05:02:33.518Z,49.91
2023-03-26T05:04:59.769Z,49.74
2023-03-26T05:07:26.757Z,49.27
2023-03-26T05:09:53.010Z,50.47
2023-03-26T05:12:19.288Z,52.31
2023-03-26T05:14:45.547Z,52.16
2023-03-26T05:17:11.767Z,51.18
2023-03-26T05:19:38.021Z,51.00
2023-03-26T05:22:04.305Z,51.25
2023-03-26T05:24:30.560Z,50.51
2023-03-26T05:26:56.803Z,51.43
2023-03-26T05:29:23.067Z,50.96
2023-03-26T05:31:49.355Z,53.49
2023-03-26T05:34:15.598Z,54.17
2023-03-26T05:36:41.834Z,54.97
2023-03-26T05:39:08.077Z,55.13
2023-03-26T05:41:34.330Z,55.04
2023-03-26T05:44:00.621Z,55.82
2023-03-26T05:46:26.903Z,56.12
2023-03-26T05:48:53.220Z,57.07
2023-03-26T05:51:19.427Z,56.50
2023-03-26T05:53:45.723Z,56.46
2023-03-26T05:56:11.971Z,56.79
2023-03-26T05:58:38.208Z,54.98
2023-03-26T06:01:04.477Z,54.10
2023-03-26T06:03:30.868Z,55.18
2023-03-26T06:05:57.265Z,56.35
2023-03-26T06:08:23.530Z,57.23
2023-03-26T06:10:49.822Z,57.23
2023-03-26T06:13:16.110Z,57.30
2023-03-26T06:15:42.459Z,57.67
2023-03-26T06:18:08.810Z,58.28
2023-03-26T06:20:35.091Z,59.05
2023-03-26T06:23:01.357Z,60.53
2023-03-26T06:25:27.635Z,59.75
2023-03-26T06:27:53.887Z,57.78
2023-03-26T06:30:20.125Z,58.63
2023-03-26T06:32:46.415Z,59.58
2023-03-26T06:35:12.709Z,59.38
2023-03-26T06:37:38.990Z,60.34
2023-03-26T06:40:05.232Z,61.32
2023-03-26T06:42:32.001Z,62.20
2023-03-26T06:45:17.757Z,62.92
2023-03-26T06:47:44.026Z,65.39
2023-03-26T06:50:10.260Z,66.49
2023-03-26T06:52:36.559Z,67.83
2023-03-26T06:55:02.845Z,68.20
2023-03-26T06:57:29.093Z,69.01
2023-03-26T06:59:55.438Z,71.12
2023-03-26T07:02:21.731Z,72.93
2023-03-26T07:04:48.041Z,73.71
2023-03-26T07:07:14.360Z,72.17
2023-03-26T07:09:40.628Z,70.05
2023-03-26T07:12:06.852Z,68.90
2023-03-26T07:14:33.100Z,69.15
2023-03-26T07:16:59.325Z,73.63
2023-03-26T07:19:25.563Z,71.88
2023-03-26T07:21:51.830Z,71.92
2023-03-26T07:24:18.059Z,68.70
2023-03-26T07:26:44.289Z,67.07
2023-03-26T07:29:10.555Z,66.49
2023-03-26T07:31:36.828Z,68.61
2023-03-26T07:34:03.084Z,69.47
2023-03-26T07:36:29.376Z,69.82
2023-03-26T07:38:55.617Z,69.45
2023-03-26T07:41:21.883Z,71.79
2023-03-26T07:43:48.170Z,78.69
2023-03-26T07:46:14.478Z,80.13
2023-03-26T07:48:40.779Z,80.16
2023-03-26T07:51:07.054Z,88.32
2023-03-26T07:53:33.303Z,82.09
2023-03-26T07:55:59.643Z,88.29
2023-03-26T07:58:25.935Z,93.14
2023-03-26T08:00:52.504Z,97.64
2023-03-26T08:03:19.133Z,96.56
2023-03-26T08:06:05.448Z,99.27
2023-03-26T08:08:51.699Z,93.94
2023-03-26T08:11:37.973Z,93.98
2023-03-26T08:14:24.226Z,91.96
2023-03-26T08:17:10.490Z,96.74
2023-03-26T08:19:56.731Z,94.58
2023-03-26T08:22:42.998Z,95.71
2023-03-26T08:25:29.263Z,93.38
2023-03-26T08:28:15.524Z,95.99
2023-03-26T08:30:52.049Z,97.37
2023-03-26T08:33:38.550Z,91.92
2023-03-26T08:36:24.860Z,89.23
2023-03-26T08:39:11.094Z,85.76
2023-03-26T08:41:57.321Z,85.91
2023-03-26T08:44:43.552Z,89.75
2023-03-26T08:47:29.820Z,89.57
2023-03-26T08:50:16.083Z,81.35
2023-03-26T08:52:42.433Z,81.98
2023-03-26T08:55:08.692Z,83.97
2023-03-26T08:57:34.919Z,85.00
2023-03-26T09:00:02.788Z,86.32
2023-03-26T09:02:29.372Z,91.66
2023-03-26T09:04:55.650Z,85.63
2023-03-26T09:07:21.943Z,85.79
2023-03-26T09:09:48.203Z,83.93
2023-03-26T09:12:14.462Z,86.92
2023-03-26T09:14:40.696Z,89.20
2023-03-26T09:17:06.922Z,94.64
2023-03-26T09:19:33.169Z,89.04
2023-03-26T09:21:59.457Z,100.00
2023-03-26T09:24:25.688Z,100.00
2023-03-26T09:26:51.933Z,100.00
2023-03-26T09:29:18.153Z,95.67
2023-03-26T09:31:44.440Z,91.81
2023-03-26T09:34:10.707Z,98.34
2023-03-26T09:36:36.945Z,98.54
2023-03-26T09:39:03.187Z,94.50
2023-03-26T09:41:29.531Z,91.13
2023-03-26T09:43:55.780Z,86.53
2023-03-26T09:46:22.162Z,91.06
2023-03-26T09:48:48.414Z,95.35
2023-03-26T09:51:14.692Z,90.03
2023-03-26T09:53:40.936Z,89.34
2023-03-26T09:56:07.168Z,86.66
2023-03-26T09:58:33.389Z,84.92
2023-03-26T10:00:59.634Z,88.75
2023-03-26T10:03:26.888Z,85.97
2023-03-26T10:05:53.312Z,90.04
2023-03-26T10:08:19.532Z,95.09
2023-03-26T10:10:45.771Z,95.08
2023-03-26T10:13:14.773Z,94.72
2023-03-26T10:15:41.467Z,92.22
2023-03-26T10:18:27.341Z,92.53
2023-03-26T10:20:54.353Z,91.30
2023-03-26T10:23:20.705Z,88.25
2023-03-26T10:25:46.960Z,90.08
2023-03-26T10:28:13.184Z,85.67
2023-03-26T10:30:39.476Z,86.56
2023-03-26T10:33:05.811Z,85.45
2023-03-26T10:35:32.144Z,87.37
2023-03-26T10:37:58.419Z,86.13
2023-03-26T10:40:24.654Z,86.39
2023-03-26T10:42:50.905Z,89.73
2023-03-26T10:45:17.134Z,84.00
2023-03-26T10:47:43.393Z,83.50
2023-03-26T10:50:09.667Z,83.34
2023-03-26T10:52:35.919Z,83.44
2023-03-26T10:55:02.149Z,79.45
2023-03-26T10:57:28.545Z,89.12
2023-03-26T10:59:54.823Z,92.06
2023-03-26T11:02:21.085Z,94.32
2023-03-26T11:04:56.039Z,94.13
2023-03-26T11:07:22.296Z,98.66
2023-03-26T11:09:48.512Z,97.71
2023-03-26T11:12:26.898Z,98.59
2023-03-26T11:14:54.303Z,97.12
2023-03-26T11:17:41.000Z,92.15
2023-03-26T11:20:06.799Z,77.49
2023-03-26T11:22:33.107Z,71.79
2023-03-26T11:24:59.346Z,72.66
2023-03-26T11:27:26.429Z,71.84
2023-03-26T11:29:52.828Z,69.91
2023-03-26T11:32:19.101Z,66.64
2023-03-26T11:34:45.725Z,63.93
2023-03-26T11:37:11.967Z,77.74
2023-03-26T11:39:38.212Z,67.87
2023-03-26T11:42:04.438Z,76.08
2023-03-26T11:44:30.696Z,74.17
2023-03-26T11:46:56.983Z,74.28
2023-03-26T11:49:23.236Z,68.46
2023-03-26T11:51:49.502Z,74.03
2023-03-26T11:54:15.740Z,79.10
2023-03-26T11:56:42.042Z,80.87
2023-03-26T11:59:28.182Z,70.48
2023-03-26T12:01:54.467Z,70.70
2023-03-26T12:04:20.816Z,67.74
2023-03-26T12:06:47.055Z,71.07
2023-03-26T12:09:13.292Z,69.21
2023-03-26T12:11:39.510Z,67.22
2023-03-26T12:14:05.750Z,67.66
2023-03-26T12:16:32.034Z,62.50
2023-03-26T12:18:58.313Z,59.83
2023-03-26T12:21:24.542Z,61.10
2023-03-26T12:23:50.776Z,64.56
2023-03-26T12:26:17.035Z,66.97
2023-03-26T12:28:43.266Z,69.95
2023-03-26T12:31:09.512Z,65.14
2023-03-26T12:33:35.899Z,62.95
2023-03-26T12:36:02.215Z,61.98
2023-03-26T12:38:28.515Z,62.14
2023-03-26T12:40:54.900Z,61.33
2023-03-26T12:44:46.085Z,56.64
2023-03-26T12:47:58.312Z,54.66
2023-03-26T12:48:53.819Z,55.05
2023-03-26T12:51:20.170Z,54.31
2023-03-26T12:53:46.412Z,57.74
2023-03-26T12:56:12.673Z,58.79
2023-03-26T12:58:38.939Z,57.04
2023-03-26T13:01:05.193Z,54.74
2023-03-26T13:03:31.491Z,54.49
2023-03-26T13:05:57.726Z,52.06
2023-03-26T13:08:24.031Z,55.82
2023-03-26T13:10:53.253Z,57.44
2023-03-26T13:13:19.636Z,54.98
2023-03-26T13:15:45.870Z,56.16
2023-03-26T13:18:12.154Z,56.11
2023-03-26T13:20:38.420Z,58.42
2023-03-26T13:23:04.706Z,64.86
2023-03-26T13:25:31.026Z,63.28
2023-03-26T13:27:57.260Z,66.08
2023-03-26T13:30:23.579Z,62.20
2023-03-26T13:32:49.850Z,62.79
2023-03-26T13:35:16.192Z,63.13
2023-03-26T13:37:42.445Z,62.29
2023-03-26T13:40:08.662Z,61.06
2023-03-26T13:42:34.891Z,61.01
2023-03-26T13:45:05.244Z,60.13
2023-03-26T13:47:32.278Z,59.04
2023-03-26T13:49:58.572Z,57.68
2023-03-26T13:52:24.841Z,55.70
2023-03-26T13:54:51.131Z,56.48
2023-03-26T13:57:17.437Z,58.86
2023-03-26T13:59:43.693Z,57.64
2023-03-26T14:02:09.942Z,59.33
2023-03-26T14:04:36.176Z,60.21
2023-03-26T14:07:02.462Z,58.48
2023-03-26T14:09:28.709Z,60.09
2023-03-26T14:11:54.944Z,63.20
2023-03-26T14:14:21.195Z,67.46
2023-03-26T14:16:47.455Z,73.31
2023-03-26T14:19:13.740Z,80.39
2023-03-26T14:21:39.984Z,84.73
2023-03-26T14:24:06.238Z,85.04
2023-03-26T14:26:32.514Z,89.30
2023-03-26T14:28:58.736Z,94.47
2023-03-26T14:31:25.019Z,100.00
2023-03-26T14:33:51.316Z,100.00
2023-03-26T14:36:17.621Z,100.00
2023-03-26T14:38:43.906Z,100.00
2023-03-26T14:41:10.203Z,100.00
2023-03-26T14:43:38.144Z,100.00
2023-03-26T14:46:04.424Z,100.00
2023-03-26T14:48:30.760Z,100.00
2023-03-26T14:50:57.219Z,100.00
2023-03-26T14:53:23.725Z,100.00
2023-03-26T14:55:49.999Z,100.00
2023-03-26T14:58:16.239Z,100.00
2023-03-26T15:00:42.545Z,100.00
2023-03-26T15:03:08.990Z,100.00
2023-03-26T15:05:35.433Z,100.00
2023-03-26T15:08:01.682Z,100.00
2023-03-26T15:10:27.921Z,100.00
2023-03-26T15:12:54.246Z,100.00
2023-03-26T15:15:20.546Z,100.00
2023-03-26T15:17:46.804Z,100.00
2023-03-26T15:20:13.108Z,100.00
2023-03-26T15:22:39.341Z,100.00
2023-03-26T15:25:05.621Z,100.00
2023-03-26T15:27:31.868Z,100.00
2023-03-26T15:29:59.668Z,100.00
2023-03-26T15:32:26.065Z,100.00
2023-03-26T15:34:52.446Z,100.00
2023-03-26T15:37:18.711Z,100.00
2023-03-26T15:39:59.799Z,100.00
2023-03-26T15:42:26.694Z,100.00
2023-03-26T15:44:54.036Z,100.00
2023-03-26T15:47:20.646Z,100.00
2023-03-26T15:49:46.874Z,100.00
2023-03-26T15:52:13.144Z,100.00
2023-03-26T15:54:39.546Z,100.00
2023-03-26T15:57:05.835Z,100.00
2023-03-26T15:59:32.089Z,100.00
2023-03-26T16:01:58.386Z,100.00
2023-03-26T16:04:24.647Z,100.00
2023-03-26T16:06:50.952Z,100.00
2023-03-26T16:09:17.181Z,100.00
2023-03-26T16:11:43.433Z,100.00
2023-03-26T16:14:09.678Z,100.00
2023-03-26T16:16:35.969Z,100.00
2023-03-26T16:19:02.222Z,100.00
2023-03-26T16:21:31.327Z,100.00
2023-03-26T16:23:58.845Z,100.00
2023-03-26T16:26:25.096Z,100.00
2023-03-26T16:28:51.312Z,100.00
2023-03-26T16:31:37.302Z,100.00
2023-03-26T16:34:03.813Z,100.00
2023-03-26T16:36:30.081Z,100.00
2023-03-26T16:38:56.302Z,100.00
2023-03-26T16:41:22.529Z,100.00
2023-03-26T16:43:48.767Z,100.00
2023-03-26T16:46:15.078Z,100.00
2023-03-26T16:48:41.352Z,100.00
2023-03-26T16:51:07.633Z,100.00
2023-03-26T16:53:33.872Z,100.00
2023-03-26T16:56:00.141Z,100.00
2023-03-26T16:58:26.419Z,100.00
2023-03-26T17:00:52.639Z,100.00
2023-03-26T17:03:18.959Z,100.00
2023-03-26T17:05:45.298Z,100.00
2023-03-26T17:08:11.517Z,100.00
2023-03-26T17:10:37.769Z,100.00
2023-03-26T17:13:04.247Z,100.00
2023-03-26T17:15:30.474Z,100.00
2023-03-26T17:17:56.782Z,100.00
2023-03-26T17:20:23.069Z,100.00
2023-03-26T17:22:49.315Z,100.00
2023-03-26T17:25:15.619Z,100.00
2023-03-26T17:27:41.898Z,100.00
2023-03-26T17:30:08.228Z,100.00
2023-03-26T17:32:34.530Z,100.00
2023-03-26T17:35:07.794Z,100.00
2023-03-26T17:37:34.043Z,100.00
2023-03-26T17:40:00.274Z,100.00
2023-03-26T17:42:26.517Z,100.00
2023-03-26T17:44:52.738Z,100.00
2023-03-26T17:47:18.986Z,100.00
2023-03-26T17:49:45.298Z,100.00
2023-03-26T17:52:11.558Z,100.00
2023-03-26T17:54:37.808Z,100.00
2023-03-26T17:57:04.123Z,100.00
2023-03-26T17:59:30.388Z,100.00
2023-03-26T18:01:56.637Z,100.00
2023-03-26T18:04:22.908Z,100.00
2023-03-26T18:06:49.121Z,100.00
2023-03-26T18:09:15.371Z,100.00
2023-03-26T18:11:41.598Z,100.00
2023-03-26T18:14:09.417Z,96.41
2023-03-26T18:16:35.724Z,100.00
2023-03-26T18:19:01.972Z,100.00
2023-03-26T18:21:28.198Z,100.00
2023-03-26T18:23:54.442Z,100.00
2023-03-26T18:26:26.092Z,100.00
2023-03-26T18:28:52.400Z,100.00
2023-03-26T18:31:18.711Z,96.87
2023-03-26T18:33:45.042Z,100.00
2023-03-26T18:36:11.379Z,97.94
2023-03-26T18:38:39.020Z,100.00
2023-03-26T18:41:06.297Z,100.00
2023-03-26T18:43:35.173Z,100.00
2023-03-26T18:46:01.934Z,100.00
2023-03-26T18:48:28.211Z,100.00
2023-03-26T18:50:54.673Z,100.00
2023-03-26T18:53:21.213Z,100.00
2023-03-26T18:55:47.465Z,100.00
2023-03-26T18:58:13.704Z,100.00
2023-03-26T19:00:39.933Z,100.00
2023-03-26T19:03:06.240Z,100.00
2023-03-26T19:05:32.524Z,100.00
2023-03-26T19:07:58.812Z,99.04
2023-03-26T19:10:25.059Z,100.00
2023-03-26T19:12:51.285Z,100.00
2023-03-26T19:15:17.541Z,100.00
2023-03-26T19:17:43.835Z,100.00
2023-03-26T19:20:10.106Z,100.00
2023-03-26T19:22:36.364Z,100.00
2023-03-26T19:25:02.607Z,96.27
2023-03-26T19:27:28.911Z,93.48
2023-03-26T19:29:55.188Z,94.17
2023-03-26T19:32:21.430Z,97.98
2023-03-26T19:34:47.659Z,95.33
2023-03-26T19:37:13.883Z,96.02
2023-03-26T19:39:40.136Z,97.46
2023-03-26T19:42:06.385Z,97.52
2023-03-26T19:44:32.631Z,97.11
2023-03-26T19:46:58.918Z,97.72
2023-03-26T19:49:27.167Z,100.00
2023-03-26T19:51:54.200Z,100.00
2023-03-26T19:54:20.423Z,100.00
2023-03-26T19:56:46.714Z,100.00
2023-03-26T19:59:12.975Z,100.00
2023-03-26T20:01:39.276Z,100.00
2023-03-26T20:04:05.520Z,100.00
2023-03-26T20:06:42.528Z,100.00
2023-03-26T20:09:09.795Z,100.00
2023-03-26T20:11:36.018Z,100.00
2023-03-26T20:14:02.327Z,100.00
2023-03-26T20:16:28.617Z,100.00
2023-03-26T20:18:54.884Z,100.00
2023-03-26T20:21:21.132Z,100.00
2023-03-26T20:23:47.367Z,100.00
2023-03-26T20:26:13.623Z,100.00
2023-03-26T20:28:47.512Z,100.00
2023-03-26T20:31:14.767Z,100.00
2023-03-26T20:33:41.122Z,100.00
2023-03-26T20:36:07.456Z,100.00
2023-03-26T20:38:39.473Z,98.97
2023-03-26T20:41:06.202Z,96.76
2023-03-26T20:43:32.447Z,100.00
2023-03-26T20:45:58.719Z,100.00
2023-03-26T20:48:25.357Z,100.00
2023-03-26T20:50:51.610Z,100.00
2023-03-26T20:53:17.866Z,100.00
2023-03-26T20:55:44.107Z,100.00
2023-03-26T20:58:10.342Z,100.00
2023-03-26T21:00:36.586Z,100.00
2023-03-26T21:03:02.867Z,100.00
2023-03-26T21:05:29.153Z,100.00
2023-03-26T21:07:55.388Z,100.00
2023-03-26T21:10:21.638Z,100.00
2023-03-26T21:12:47.862Z,100.00
2023-03-26T21:15:22.849Z,100.00
2023-03-26T21:17:49.938Z,100.00
2023-03-26T21:20:17.163Z,99.79
2023-03-26T21:22:43.486Z,99.92
2023-03-26T21:25:09.715Z,100.00
2023-03-26T21:27:35.971Z,100.00
2023-03-26T21:30:02.227Z,96.94
2023-03-26T21:32:29.340Z,92.14
2023-03-26T21:34:59.089Z,89.96
2023-03-26T21:37:25.850Z,88.65
2023-03-26T21:39:52.080Z,86.45
2023-03-26T21:42:18.315Z,88.72
2023-03-26T21:44:44.540Z,86.73
2023-03-26T21:47:10.806Z,87.82
2023-03-26T21:49:37.100Z,86.78
2023-03-26T21:52:03.348Z,88.18
2023-03-26T21:54:29.636Z,88.55
2023-03-26T21:56:55.909Z,87.12
2023-03-26T21:59:22.192Z,86.58
2023-03-26T22:01:48.472Z,87.42
2023-03-26T22:04:14.749Z,86.90
2023-03-26T22:06:40.978Z,86.32
2023-03-26T22:09:07.231Z,83.68
2023-03-26T22:11:33.493Z,85.16
2023-03-26T22:13:59.755Z,85.74
2023-03-26T22:16:26.148Z,85.42
2023-03-26T22:18:52.404Z,88.78
2023-03-26T22:21:18.704Z,93.14
2023-03-26T22:23:44.982Z,92.56
2023-03-26T22:26:11.259Z,90.17
2023-03-26T22:28:37.553Z,87.49
2023-03-26T22:31:03.858Z,86.51
2023-03-26T22:33:30.138Z,81.61
2023-03-26T22:35:56.382Z,90.90
2023-03-26T22:38:22.637Z,89.13
2023-03-26T22:40:48.908Z,87.09
2023-03-26T22:43:15.176Z,92.37
2023-03-26T22:45:41.453Z,99.71
2023-03-26T22:48:07.791Z,100.00
2023-03-26T22:50:34.057Z,100.00
2023-03-26T22:53:00.305Z,100.00
2023-03-26T22:55:28.294Z,100.00
2023-03-26T22:57:55.455Z,100.00
2023-03-26T23:00:21.681Z,100.00
2023-03-26T23:02:47.958Z,100.00
2023-03-26T23:05:14.248Z,98.39
2023-03-26T23:07:40.521Z,100.00
2023-03-26T23:10:06.762Z,96.11
2023-03-26T23:12:33.038Z,96.64
2023-03-26T23:14:59.279Z,96.67
2023-03-26T23:17:25.579Z,96.23
2023-03-26T23:19:51.861Z,94.10
2023-03-26T23:22:18.090Z,98.03
2023-03-26T23:24:44.364Z,94.33
2023-03-26T23:27:10.631Z,91.44
2023-03-26T23:29:36.899Z,91.80
2023-03-26T23:32:03.147Z,89.99
2023-03-26T23:34:51.914Z,88.08
2023-03-26T23:37:18.716Z,87.67
2023-03-26T23:39:44.942Z,85.91
2023-03-26T23:42:11.191Z,86.60
2023-03-26T23:44:37.420Z,87.38
2023-03-26T23:47:03.645Z,87.95
2023-03-26T23:49:29.889Z,87.13
2023-03-26T23:51:56.117Z,85.56
2023-03-26T23:54:22.358Z,88.22
2023-03-26T23:56:48.646Z,90.23
2023-03-26T23:59:14.903Z,90.99
